Time;durP1;ratioP1;P1;durP2;ratioP2;P2;SDS_P1;SDS_P2;PMS_P1;PMS_P2;Temp;Humidity;BMP_temperature;BMP_pressure;BME280_temperature;BME280_humidity;BME280_pressure;Samples;Min_cycle;Max_cycle;Signal;HPM_P1;HPM_P2
2021/11/11 00:00:34;;;;;;;211.50;66.30;;;9.50;99.90;;;;;;5096965;28;20513;-78
2021/11/11 00:03:03;;;;;;;282.17;63.50;;;9.50;99.90;;;;;;5096543;28;20544;-77
2021/11/11 00:05:32;;;;;;;250.53;58.23;;;9.50;99.90;;;;;;5085562;28;20566;-77
2021/11/11 00:08:01;;;;;;;197.47;63.80;;;9.50;99.90;;;;;;5083412;28;20483;-78
2021/11/11 00:10:30;;;;;;;240.93;59.67;;;9.60;99.90;;;;;;5096451;28;20448;-78
2021/11/11 00:12:59;;;;;;;253.50;64.03;;;9.50;99.90;;;;;;5081369;28;20461;-77
2021/11/11 00:15:29;;;;;;;248.33;59.33;;;9.50;99.90;;;;;;5076097;28;20929;-77
2021/11/11 00:17:59;;;;;;;197.67;60.77;;;9.50;99.90;;;;;;5075963;28;20511;-77
2021/11/11 00:20:29;;;;;;;192.10;60.30;;;9.50;99.90;;;;;;5076875;28;20538;-77
2021/11/11 00:22:57;;;;;;;209.90;53.60;;;9.50;99.90;;;;;;5076602;28;20942;-77
2021/11/11 00:25:29;;;;;;;216.27;58.07;;;9.50;99.90;;;;;;5075927;28;20456;-77
2021/11/11 00:27:58;;;;;;;226.73;65.93;;;9.50;99.90;;;;;;5084296;28;20509;-77
2021/11/11 00:30:27;;;;;;;216.30;67.67;;;9.50;99.90;;;;;;5097295;28;20877;-77
2021/11/11 00:32:56;;;;;;;198.63;62.00;;;9.50;99.90;;;;;;5096184;28;20782;-77
2021/11/11 00:35:28;;;;;;;206.03;70.27;;;9.50;99.90;;;;;;5095998;28;20543;-77
2021/11/11 00:37:58;;;;;;;208.80;58.63;;;9.50;99.90;;;;;;5096032;28;20437;-77
2021/11/11 00:40:28;;;;;;;283.83;60.90;;;9.50;99.90;;;;;;5094876;28;20471;-77
2021/11/11 00:42:57;;;;;;;198.23;64.03;;;9.50;99.90;;;;;;5086251;28;20468;-78
2021/11/11 00:45:26;;;;;;;180.80;57.93;;;9.50;99.90;;;;;;5092941;28;20444;-77
2021/11/11 00:47:55;;;;;;;198.43;60.50;;;9.50;99.90;;;;;;5074981;28;20460;-77
2021/11/11 00:50:28;;;;;;;215.10;58.73;;;9.50;99.90;;;;;;5089666;28;20834;-77
2021/11/11 00:52:56;;;;;;;286.47;76.07;;;9.50;99.90;;;;;;5074938;28;20441;-77
2021/11/11 00:55:25;;;;;;;189.47;59.60;;;9.50;99.90;;;;;;5075186;28;20543;-77
2021/11/11 00:58:02;;;;;;;211.60;67.27;;;9.50;99.90;;;;;;5074828;28;20533;-77
2021/11/11 01:00:31;;;;;;;252.53;61.40;;;9.50;99.90;;;;;;5089724;28;20992;-79
2021/11/11 01:02:59;;;;;;;204.27;57.70;;;9.50;99.90;;;;;;5095439;28;20440;-77
2021/11/11 01:05:29;;;;;;;213.60;70.10;;;9.50;99.90;;;;;;5083435;28;20457;-77
2021/11/11 01:07:57;;;;;;;171.47;59.67;;;9.50;99.90;;;;;;5074757;28;20887;-77
2021/11/11 01:10:26;;;;;;;170.00;55.53;;;9.40;99.90;;;;;;5091780;28;20976;-77
2021/11/11 01:12:56;;;;;;;241.57;66.90;;;9.50;99.90;;;;;;5094616;28;20480;-77
2021/11/11 01:15:27;;;;;;;198.60;61.43;;;9.50;99.90;;;;;;5089388;28;20445;-78
2021/11/11 01:17:56;;;;;;;237.00;62.83;;;9.50;99.90;;;;;;5074522;28;20503;-77
2021/11/11 01:20:25;;;;;;;245.73;70.27;;;9.50;99.90;;;;;;5075814;28;20522;-78
2021/11/11 01:22:56;;;;;;;321.93;61.27;;;9.50;99.90;;;;;;5095281;28;20535;-77
2021/11/11 01:25:28;;;;;;;187.17;58.97;;;9.50;99.90;;;;;;5095029;28;20471;-77
2021/11/11 01:27:57;;;;;;;209.83;62.53;;;9.40;99.90;;;;;;5094665;28;20819;-77
2021/11/11 01:30:31;;;;;;;202.30;50.90;;;9.50;99.90;;;;;;5094474;28;20944;-78
2021/11/11 01:33:16;;;;;;;177.90;65.00;;;9.40;99.90;;;;;;5094541;28;20440;-77
2021/11/11 01:35:45;;;;;;;182.77;49.73;;;9.40;99.90;;;;;;5086617;28;20461;-77
2021/11/11 01:38:19;;;;;;;273.07;68.53;;;9.40;99.90;;;;;;5074009;28;20445;-77
2021/11/11 01:40:52;;;;;;;166.53;60.83;;;9.40;99.90;;;;;;5080578;28;20490;-78
2021/11/11 01:43:24;;;;;;;171.40;50.43;;;9.40;99.90;;;;;;5082844;28;20826;-77
2021/11/11 01:45:55;;;;;;;258.40;65.47;;;9.40;99.90;;;;;;5074126;28;20442;-77
2021/11/11 01:48:26;;;;;;;239.47;65.27;;;9.40;99.90;;;;;;5075860;28;20477;-77
2021/11/11 01:51:01;;;;;;;187.80;58.70;;;9.40;99.90;;;;;;5074616;28;20469;-77
2021/11/11 01:53:36;;;;;;;179.97;54.83;;;9.40;99.90;;;;;;5088228;28;20448;-77
2021/11/11 01:56:06;;;;;;;263.53;61.00;;;9.40;99.90;;;;;;5091201;28;20514;-78
2021/11/11 01:58:37;;;;;;;210.43;64.40;;;9.40;99.90;;;;;;5073973;28;20437;-77
2021/11/11 02:01:07;;;;;;;180.40;59.80;;;9.40;99.90;;;;;;5073670;28;20567;-77
2021/11/11 02:03:38;;;;;;;231.47;57.43;;;9.40;99.90;;;;;;5074660;28;20465;-77
2021/11/11 02:06:13;;;;;;;279.37;65.90;;;9.40;99.90;;;;;;5073746;28;20458;-77
2021/11/11 02:09:04;;;;;;;159.23;51.00;;;9.40;99.90;;;;;;5073591;28;20487;-77
2021/11/11 02:11:52;;;;;;;144.43;55.50;;;9.40;99.90;;;;;;5073648;28;21016;-77
2021/11/11 02:14:20;;;;;;;218.63;60.10;;;9.30;99.90;;;;;;5074474;28;20821;-77
2021/11/11 02:16:50;;;;;;;231.57;58.77;;;9.30;99.90;;;;;;5073339;28;20461;-77
2021/11/11 02:19:30;;;;;;;203.23;61.63;;;9.30;99.90;;;;;;5087521;28;20455;-77
2021/11/11 02:22:03;;;;;;;178.10;62.80;;;9.40;99.90;;;;;;5093691;28;20483;-77
2021/11/11 02:24:38;;;;;;;173.47;59.63;;;9.30;99.90;;;;;;5093867;28;20530;-77
2021/11/11 02:27:11;;;;;;;172.47;57.93;;;9.30;99.90;;;;;;5089740;28;20464;-77
2021/11/11 02:29:40;;;;;;;186.13;52.67;;;9.30;99.90;;;;;;5073941;28;20506;-78
2021/11/11 02:32:10;;;;;;;282.63;63.00;;;9.30;99.90;;;;;;5074022;28;20484;-77
2021/11/11 02:34:47;;;;;;;180.87;55.70;;;9.30;99.90;;;;;;5080040;28;20509;-77
2021/11/11 02:37:18;;;;;;;163.10;60.47;;;9.30;99.90;;;;;;5074850;28;20475;-78
2021/11/11 02:40:08;;;;;;;204.20;61.50;;;9.30;99.90;;;;;;5070712;28;20453;-77
2021/11/11 02:42:42;;;;;;;263.13;69.30;;;9.30;99.90;;;;;;5085750;28;20487;-78
2021/11/11 02:45:19;;;;;;;244.10;65.00;;;9.30;99.90;;;;;;5093828;28;20948;-77
2021/11/11 02:47:51;;;;;;;270.00;70.60;;;9.30;99.90;;;;;;5094628;28;20444;-77
2021/11/11 02:50:28;;;;;;;223.00;62.10;;;9.30;99.90;;;;;;5087127;28;20957;-77
2021/11/11 02:53:00;;;;;;;231.83;63.43;;;9.30;99.90;;;;;;5073274;28;20813;-77
2021/11/11 02:55:29;;;;;;;252.47;76.10;;;9.30;99.90;;;;;;5073283;28;20444;-77
2021/11/11 02:58:00;;;;;;;297.10;65.23;;;9.30;99.90;;;;;;5074482;28;20445;-77
2021/11/11 03:00:31;;;;;;;183.13;52.27;;;9.30;99.90;;;;;;5073037;28;20444;-78
2021/11/11 03:03:00;;;;;;;220.93;62.50;;;9.20;99.90;;;;;;5073154;28;20456;-77
2021/11/11 03:05:35;;;;;;;196.77;61.37;;;9.20;99.90;;;;;;5088228;28;20547;-77
2021/11/11 03:08:10;;;;;;;142.17;59.53;;;9.30;99.90;;;;;;5097608;28;21024;-77
2021/11/11 03:10:47;;;;;;;217.97;64.30;;;9.20;99.90;;;;;;5084752;28;20533;-77
2021/11/11 03:13:18;;;;;;;187.17;59.60;;;9.20;99.90;;;;;;5076681;28;20470;-77
2021/11/11 03:15:57;;;;;;;170.63;61.63;;;9.30;99.90;;;;;;5076700;28;20434;-77
2021/11/11 03:18:25;;;;;;;254.97;72.03;;;9.30;99.90;;;;;;5076753;28;20468;-77
2021/11/11 03:20:54;;;;;;;191.40;58.93;;;9.30;99.90;;;;;;5077522;28;20564;-77
2021/11/11 03:23:24;;;;;;;283.43;78.73;;;9.30;99.90;;;;;;5076466;28;20506;-77
2021/11/11 03:25:53;;;;;;;159.70;53.60;;;9.30;99.90;;;;;;5076180;28;20445;-78
2021/11/11 03:28:27;;;;;;;194.70;57.70;;;9.30;99.90;;;;;;5091308;28;20454;-77
2021/11/11 03:30:55;;;;;;;296.17;72.73;;;9.20;99.90;;;;;;5096176;28;20483;-77
2021/11/11 03:33:25;;;;;;;214.90;60.13;;;9.20;99.90;;;;;;5096806;28;20439;-77
2021/11/11 03:35:53;;;;;;;184.47;65.17;;;9.20;99.90;;;;;;5096773;28;20479;-77
2021/11/11 03:38:22;;;;;;;287.93;72.80;;;9.30;99.90;;;;;;5098197;28;20913;-77
2021/11/11 03:40:51;;;;;;;202.00;60.53;;;9.30;99.90;;;;;;5096427;28;21017;-78
2021/11/11 03:43:29;;;;;;;200.37;58.97;;;9.30;99.90;;;;;;5096428;28;20832;-77
2021/11/11 03:46:05;;;;;;;235.73;60.77;;;9.20;99.90;;;;;;5096815;28;20462;-77
2021/11/11 03:48:34;;;;;;;207.20;67.30;;;9.20;99.90;;;;;;5096449;28;20902;-77
2021/11/11 03:51:04;;;;;;;279.40;63.47;;;9.20;99.90;;;;;;5094995;28;20472;-77
2021/11/11 03:53:34;;;;;;;167.30;63.67;;;9.20;99.90;;;;;;5079233;28;20468;-77
2021/11/11 03:56:05;;;;;;;179.03;57.60;;;9.20;99.90;;;;;;5076093;28;20449;-77
2021/11/11 03:58:34;;;;;;;258.43;68.60;;;9.20;99.90;;;;;;5076023;28;20455;-77
2021/11/11 04:01:03;;;;;;;206.57;60.37;;;9.20;99.90;;;;;;5075966;28;20475;-77
2021/11/11 04:03:31;;;;;;;163.17;60.17;;;9.20;99.90;;;;;;5076052;28;20548;-77
2021/11/11 04:05:59;;;;;;;154.63;57.27;;;9.20;99.90;;;;;;5075771;28;20483;-77
2021/11/11 04:08:37;;;;;;;256.83;60.97;;;9.20;99.90;;;;;;5087508;28;20952;-77
2021/11/11 04:11:05;;;;;;;188.17;66.70;;;9.20;99.90;;;;;;5095732;28;20464;-77
2021/11/11 04:13:34;;;;;;;205.60;59.77;;;9.20;99.90;;;;;;5096023;28;20444;-77
2021/11/11 04:16:04;;;;;;;194.83;53.87;;;9.20;99.90;;;;;;5095799;28;20861;-77
2021/11/11 04:18:35;;;;;;;272.77;70.77;;;9.20;99.90;;;;;;5096237;28;20868;-77
2021/11/11 04:21:04;;;;;;;166.13;57.13;;;9.20;99.90;;;;;;5095963;28;20559;-77
2021/11/11 04:23:33;;;;;;;279.00;82.33;;;9.20;99.90;;;;;;5095724;28;20562;-77
2021/11/11 04:26:08;;;;;;;153.27;58.00;;;9.20;99.90;;;;;;5093715;28;20859;-77
2021/11/11 04:28:46;;;;;;;214.73;64.73;;;9.20;99.90;;;;;;5075394;28;20444;-77
2021/11/11 04:31:21;;;;;;;242.00;70.33;;;9.20;99.90;;;;;;5079700;28;20857;-77
2021/11/11 04:33:54;;;;;;;243.33;66.07;;;9.20;99.90;;;;;;5075254;28;20440;-77
2021/11/11 04:39:31;;;;;;;161.07;56.93;;;9.20;99.90;;;;;;5075517;28;20444;-77
2021/11/11 04:42:12;;;;;;;186.53;62.70;;;9.20;99.90;;;;;;5076305;28;20492;-77
2021/11/11 04:44:51;;;;;;;214.87;70.37;;;9.20;99.90;;;;;;5095292;28;20442;-77
2021/11/11 04:47:33;;;;;;;191.43;64.33;;;9.20;99.90;;;;;;5082097;28;20465;-77
2021/11/11 04:53:02;;;;;;;189.83;58.40;;;9.20;99.90;;;;;;5093971;28;20483;-77
2021/11/11 05:01:17;;;;;;;189.53;61.23;;;9.20;99.90;;;;;;5074770;28;20993;-77
2021/11/11 05:03:46;;;;;;;193.27;68.60;;;9.20;99.90;;;;;;5074363;28;20472;-77
2021/11/11 05:06:17;;;;;;;233.70;72.20;;;9.20;99.90;;;;;;5094581;28;20452;-77
2021/11/11 05:08:48;;;;;;;187.13;60.53;;;9.20;99.90;;;;;;5094209;28;20464;-77
2021/11/11 05:11:18;;;;;;;174.70;53.23;;;9.20;99.90;;;;;;5094965;28;20467;-77
2021/11/11 05:13:47;;;;;;;183.27;65.50;;;9.20;99.90;;;;;;5094802;28;20454;-77
2021/11/11 05:16:18;;;;;;;161.10;59.07;;;9.20;99.90;;;;;;5094533;28;20446;-77
2021/11/11 05:18:48;;;;;;;201.00;65.60;;;9.20;99.90;;;;;;5094647;28;20522;-77
2021/11/11 05:21:18;;;;;;;179.80;57.43;;;9.20;99.90;;;;;;5094952;28;20976;-77
2021/11/11 05:23:46;;;;;;;236.43;70.50;;;9.30;99.90;;;;;;5092223;28;20468;-77
2021/11/11 05:26:20;;;;;;;197.40;56.27;;;9.30;99.90;;;;;;5093079;28;21018;-77
2021/11/11 05:28:50;;;;;;;248.70;77.23;;;9.30;99.90;;;;;;5074790;28;20499;-77
2021/11/11 05:31:18;;;;;;;161.33;57.07;;;9.30;99.90;;;;;;5074488;28;20476;-77
2021/11/11 05:33:47;;;;;;;169.10;58.67;;;9.30;99.90;;;;;;5074387;28;20528;-77
2021/11/11 05:36:16;;;;;;;246.33;71.53;;;9.30;99.90;;;;;;5074404;28;20457;-77
2021/11/11 05:38:44;;;;;;;167.40;56.87;;;9.30;99.90;;;;;;5074014;28;20453;-77
2021/11/11 05:41:13;;;;;;;188.73;68.60;;;9.30;99.90;;;;;;5074465;28;20465;-78
2021/11/11 05:43:45;;;;;;;219.17;68.80;;;9.30;99.90;;;;;;5073930;28;20492;-77
2021/11/11 05:46:17;;;;;;;237.80;70.13;;;9.30;99.90;;;;;;5081852;28;20459;-77
2021/11/11 05:48:48;;;;;;;219.87;61.23;;;9.40;99.90;;;;;;5094896;28;20445;-77
2021/11/11 05:51:16;;;;;;;163.83;61.37;;;9.30;99.90;;;;;;5076768;28;20508;-77
2021/11/11 05:53:45;;;;;;;223.93;64.93;;;9.30;99.90;;;;;;5073950;28;20986;-77
2021/11/11 05:56:14;;;;;;;180.63;63.90;;;9.30;99.90;;;;;;5073785;28;20456;-77
2021/11/11 05:58:44;;;;;;;208.20;66.13;;;9.30;99.90;;;;;;5073422;28;20461;-77
2021/11/11 06:01:13;;;;;;;255.97;75.57;;;9.30;99.90;;;;;;5073864;28;20846;-77
2021/11/11 06:03:50;;;;;;;179.43;64.67;;;9.30;99.90;;;;;;5073352;28;20907;-77
2021/11/11 06:06:20;;;;;;;296.90;69.20;;;9.30;99.90;;;;;;5073641;28;20910;-77
2021/11/11 06:08:48;;;;;;;232.27;79.37;;;9.30;99.90;;;;;;5073368;28;20452;-77
2021/11/11 06:11:16;;;;;;;220.10;63.73;;;9.30;99.90;;;;;;5072908;28;20985;-77
2021/11/11 06:13:45;;;;;;;269.67;72.27;;;9.30;99.90;;;;;;5073212;28;20453;-77
2021/11/11 06:16:13;;;;;;;210.80;65.50;;;9.30;99.90;;;;;;5073169;28;20498;-77
2021/11/11 06:18:42;;;;;;;247.40;71.33;;;9.30;99.90;;;;;;5072912;28;20437;-76
2021/11/11 06:21:12;;;;;;;214.97;72.93;;;9.30;99.90;;;;;;5072609;28;20472;-77
2021/11/11 06:23:41;;;;;;;153.50;68.87;;;9.30;99.90;;;;;;5072804;28;20468;-77
2021/11/11 06:26:11;;;;;;;175.80;59.80;;;9.20;99.90;;;;;;5072591;28;20456;-77
2021/11/11 06:29:06;;;;;;;205.23;60.73;;;9.20;99.90;;;;;;5072620;28;20447;-77
2021/11/11 06:31:35;;;;;;;282.97;77.70;;;9.20;99.90;;;;;;5072813;28;20468;-77
2021/11/11 06:34:04;;;;;;;174.87;63.87;;;9.20;99.90;;;;;;5072722;28;20495;-77
2021/11/11 06:36:33;;;;;;;140.17;67.80;;;9.20;99.90;;;;;;5073133;28;20531;-77
2021/11/11 06:39:01;;;;;;;212.27;78.27;;;9.20;99.90;;;;;;5074755;28;20453;-77
2021/11/11 06:41:30;;;;;;;215.40;66.57;;;9.20;99.90;;;;;;5077610;28;20560;-77
2021/11/11 06:43:58;;;;;;;264.97;69.83;;;9.20;99.90;;;;;;5077257;28;20490;-77
2021/11/11 06:46:27;;;;;;;238.77;72.37;;;9.20;99.90;;;;;;5077228;28;20441;-78
2021/11/11 06:48:55;;;;;;;224.80;65.23;;;9.20;99.90;;;;;;5077228;28;20817;-77
2021/11/11 06:51:26;;;;;;;218.83;63.97;;;9.20;99.90;;;;;;5077090;28;20460;-77
2021/11/11 06:53:55;;;;;;;131.57;51.37;;;9.20;99.90;;;;;;5078557;28;20802;-77
2021/11/11 06:56:24;;;;;;;226.10;63.67;;;9.20;99.90;;;;;;5078465;28;20437;-77
2021/11/11 06:58:52;;;;;;;154.53;60.90;;;9.20;99.90;;;;;;5078306;28;20491;-77
2021/11/11 07:01:21;;;;;;;178.10;57.70;;;9.20;99.90;;;;;;5076876;28;20825;-77
2021/11/11 07:03:51;;;;;;;225.17;72.13;;;9.20;99.90;;;;;;5077636;28;20518;-77
2021/11/11 07:06:20;;;;;;;240.67;67.83;;;9.20;99.90;;;;;;5076923;28;20473;-77
2021/11/11 07:08:48;;;;;;;189.77;58.80;;;9.20;99.90;;;;;;5076465;28;20808;-77
2021/11/11 07:11:18;;;;;;;148.13;54.93;;;9.20;99.90;;;;;;5076510;28;20461;-77
2021/11/11 07:13:46;;;;;;;241.73;79.53;;;9.20;99.90;;;;;;5076667;28;20468;-77
2021/11/11 07:16:15;;;;;;;179.53;63.17;;;9.20;99.90;;;;;;5076673;28;20452;-77
2021/11/11 07:18:43;;;;;;;138.30;51.53;;;9.20;99.90;;;;;;5076525;28;20875;-77
2021/11/11 07:21:11;;;;;;;196.27;63.50;;;9.30;99.90;;;;;;5077571;28;20488;-77
2021/11/11 07:23:39;;;;;;;176.03;60.10;;;9.20;99.90;;;;;;5076246;28;20469;-77
2021/11/11 07:26:08;;;;;;;142.17;58.77;;;9.30;99.90;;;;;;5077469;28;20490;-77
2021/11/11 07:28:37;;;;;;;219.10;67.20;;;9.30;99.90;;;;;;5076087;28;20453;-77
2021/11/11 07:31:06;;;;;;;184.60;63.10;;;9.30;99.90;;;;;;5076071;28;20472;-77
2021/11/11 07:33:34;;;;;;;155.63;57.97;;;9.30;99.90;;;;;;5076237;28;20443;-77
2021/11/11 07:36:04;;;;;;;168.97;56.53;;;9.30;99.90;;;;;;5076225;28;20502;-77
2021/11/11 07:38:33;;;;;;;167.83;52.13;;;9.40;99.90;;;;;;5076106;28;20460;-77
2021/11/11 07:41:01;;;;;;;199.00;58.77;;;9.30;99.90;;;;;;5075990;28;20475;-77
2021/11/11 07:43:30;;;;;;;128.03;48.13;;;9.40;99.90;;;;;;5076145;28;20594;-77
2021/11/11 07:46:04;;;;;;;208.50;51.90;;;9.40;99.90;;;;;;5077854;28;20451;-77
2021/11/11 07:48:33;;;;;;;239.07;63.87;;;9.40;99.90;;;;;;5075986;28;20467;-77
2021/11/11 07:51:04;;;;;;;163.53;56.83;;;9.40;99.90;;;;;;5075483;28;20469;-77
2021/11/11 07:53:32;;;;;;;119.23;48.93;;;9.50;99.90;;;;;;5076013;28;20437;-77
2021/11/11 07:56:01;;;;;;;86.63;39.10;;;9.50;99.90;;;;;;5077335;28;20440;-77
2021/11/11 07:58:29;;;;;;;163.87;50.43;;;9.50;99.90;;;;;;5075762;28;20449;-77
2021/11/11 08:00:59;;;;;;;162.70;51.90;;;9.50;99.90;;;;;;5075931;28;20469;-77
2021/11/11 08:03:28;;;;;;;194.63;55.57;;;9.60;99.90;;;;;;5077426;28;20504;-77
2021/11/11 08:05:56;;;;;;;167.70;53.70;;;9.60;99.90;;;;;;5077182;28;20532;-77
2021/11/11 08:08:24;;;;;;;235.67;65.73;;;9.60;99.90;;;;;;5076894;28;20441;-77
2021/11/11 08:10:52;;;;;;;179.10;48.60;;;9.60;99.90;;;;;;5075194;28;20453;-77
2021/11/11 08:13:21;;;;;;;277.97;55.50;;;9.60;99.90;;;;;;5075027;28;20471;-77
2021/11/11 08:15:49;;;;;;;268.37;64.90;;;9.70;99.90;;;;;;5075258;28;20442;-77
2021/11/11 08:18:19;;;;;;;151.77;51.77;;;9.70;99.90;;;;;;5075488;28;20459;-77
2021/11/11 08:20:49;;;;;;;164.67;53.97;;;9.70;99.90;;;;;;5075408;28;20445;-77
2021/11/11 08:23:18;;;;;;;224.07;58.23;;;9.80;99.90;;;;;;5074944;28;20454;-77
2021/11/11 08:25:48;;;;;;;130.87;44.90;;;9.80;99.90;;;;;;5075065;28;20551;-77
2021/11/11 08:28:17;;;;;;;218.43;57.20;;;9.90;99.90;;;;;;5076650;28;20528;-77
2021/11/11 08:30:46;;;;;;;275.77;65.03;;;9.90;99.90;;;;;;5076471;28;20434;-77
2021/11/11 08:33:15;;;;;;;209.03;52.57;;;9.90;99.90;;;;;;5075571;28;20464;-77
2021/11/11 08:35:45;;;;;;;318.67;71.37;;;9.90;99.90;;;;;;5075498;28;20975;-77
2021/11/11 08:38:14;;;;;;;229.73;56.47;;;9.90;99.90;;;;;;5075533;28;20515;-77
2021/11/11 08:40:42;;;;;;;220.03;59.20;;;10.00;99.90;;;;;;5075411;28;20981;-78
2021/11/11 08:43:11;;;;;;;334.77;59.37;;;10.00;99.90;;;;;;5075532;28;20457;-77
2021/11/11 08:45:42;;;;;;;192.27;57.27;;;10.10;99.90;;;;;;5075707;28;20461;-77
2021/11/11 08:48:11;;;;;;;298.60;61.97;;;10.10;99.90;;;;;;5075013;28;20444;-77
2021/11/11 08:50:39;;;;;;;277.60;59.83;;;10.20;99.90;;;;;;5075249;28;20978;-78
2021/11/11 08:53:12;;;;;;;314.60;61.33;;;10.20;99.90;;;;;;5076153;28;20463;-77
2021/11/11 08:55:42;;;;;;;351.27;71.27;;;10.30;99.90;;;;;;5074880;28;20487;-77
2021/11/11 08:58:12;;;;;;;316.83;59.37;;;10.30;99.90;;;;;;5074988;28;20476;-77
2021/11/11 09:00:44;;;;;;;274.70;56.50;;;10.40;99.90;;;;;;5076334;28;20421;-78
2021/11/11 09:03:13;;;;;;;228.90;53.37;;;10.40;99.90;;;;;;5074921;28;20437;-77
2021/11/11 09:05:41;;;;;;;408.80;77.27;;;10.40;99.90;;;;;;5074748;28;20556;-77
2021/11/11 09:08:12;;;;;;;311.77;58.97;;;10.50;99.90;;;;;;5074721;28;20452;-77
2021/11/11 09:10:43;;;;;;;346.20;69.13;;;10.50;99.90;;;;;;5076098;28;20430;-77
2021/11/11 09:13:29;;;;;;;382.97;61.30;;;10.50;99.90;;;;;;5074741;28;20421;-77
2021/11/11 09:15:58;;;;;;;206.33;56.53;;;10.60;99.90;;;;;;5076572;28;20422;-77
2021/11/11 09:18:26;;;;;;;301.73;62.60;;;10.60;99.90;;;;;;5075272;28;20449;-77
2021/11/11 09:21:08;;;;;;;160.63;43.73;;;10.70;99.90;;;;;;5075072;28;20479;-78
2021/11/11 09:23:38;;;;;;;264.67;51.43;;;10.70;99.90;;;;;;5076367;28;20445;-77
2021/11/11 09:26:08;;;;;;;328.60;52.57;;;10.80;99.90;;;;;;5074920;28;20469;-77
2021/11/11 09:28:39;;;;;;;347.93;63.20;;;10.90;99.90;;;;;;5075561;28;21001;-77
2021/11/11 09:31:10;;;;;;;354.17;55.70;;;10.90;99.90;;;;;;5075428;28;20527;-78
2021/11/11 09:33:39;;;;;;;282.57;56.60;;;10.90;99.90;;;;;;5076998;28;20426;-78
2021/11/11 09:36:08;;;;;;;272.07;58.67;;;10.90;99.90;;;;;;5075465;28;20531;-77
2021/11/11 09:38:37;;;;;;;319.63;61.73;;;11.00;99.90;;;;;;5075446;28;20441;-78
2021/11/11 09:41:06;;;;;;;420.87;64.47;;;11.00;99.90;;;;;;5075182;28;20526;-78
2021/11/11 09:43:37;;;;;;;320.47;62.83;;;11.00;99.90;;;;;;5074702;28;20456;-77
2021/11/11 09:46:06;;;;;;;304.67;56.63;;;11.00;99.90;;;;;;5075923;28;20457;-77
2021/11/11 09:48:35;;;;;;;318.90;59.57;;;10.90;99.90;;;;;;5074004;28;20442;-77
2021/11/11 09:51:09;;;;;;;339.80;63.63;;;10.90;99.90;;;;;;5074558;28;20978;-77
2021/11/11 09:53:49;;;;;;;323.60;64.67;;;10.90;99.90;;;;;;5074274;28;20803;-77
2021/11/11 09:59:19;;;;;;;224.30;45.80;;;10.90;99.90;;;;;;5077484;28;20470;-78
2021/11/11 10:01:48;;;;;;;215.87;48.63;;;10.90;99.90;;;;;;5075936;28;20461;-77
2021/11/11 10:04:17;;;;;;;329.93;54.03;;;11.00;99.90;;;;;;5075572;28;20453;-78
2021/11/11 10:06:45;;;;;;;240.37;48.63;;;11.00;99.90;;;;;;5074673;28;20576;-78
2021/11/11 10:09:17;;;;;;;283.27;56.30;;;11.00;99.90;;;;;;5075035;28;20456;-77
2021/11/11 10:11:50;;;;;;;256.67;54.57;;;11.00;99.90;;;;;;5076404;28;20488;-77
2021/11/11 10:14:22;;;;;;;278.80;50.67;;;11.10;99.90;;;;;;5075369;28;20449;-77
2021/11/11 10:16:53;;;;;;;228.67;51.20;;;11.10;99.90;;;;;;5073835;28;20441;-77
2021/11/11 10:19:23;;;;;;;337.80;60.23;;;11.10;99.90;;;;;;5074139;28;20433;-78
2021/11/11 10:21:54;;;;;;;348.37;63.77;;;11.10;99.90;;;;;;5074373;28;20465;-78
2021/11/11 10:24:33;;;;;;;319.73;56.53;;;11.10;99.90;;;;;;5075269;28;20432;-77
2021/11/11 10:27:07;;;;;;;350.27;63.53;;;11.10;99.90;;;;;;5074711;28;20471;-78
2021/11/11 10:29:43;;;;;;;267.70;62.73;;;11.10;99.90;;;;;;5075661;28;20449;-77
2021/11/11 10:32:15;;;;;;;297.23;64.03;;;11.20;99.90;;;;;;5075631;28;20492;-78
2021/11/11 10:34:53;;;;;;;439.50;78.97;;;11.20;99.90;;;;;;5076474;28;20490;-78
2021/11/11 10:37:25;;;;;;;225.10;57.83;;;11.20;99.90;;;;;;5074799;28;20486;-78
2021/11/11 10:39:59;;;;;;;330.20;59.03;;;11.20;99.90;;;;;;5074717;28;20441;-78
2021/11/11 10:42:29;;;;;;;210.07;55.43;;;11.20;99.90;;;;;;5077005;28;20994;-78
2021/11/11 10:44:59;;;;;;;357.43;69.17;;;11.20;99.90;;;;;;5077301;28;20466;-78
2021/11/11 10:47:30;;;;;;;260.70;52.17;;;11.20;99.90;;;;;;5075721;28;20473;-78
2021/11/11 10:50:01;;;;;;;274.47;55.03;;;11.20;99.90;;;;;;5074399;28;20457;-77
2021/11/11 10:52:39;;;;;;;438.53;68.57;;;11.20;99.90;;;;;;5074324;28;20520;-77
2021/11/11 10:55:17;;;;;;;261.77;50.37;;;11.20;99.90;;;;;;5074641;28;20847;-77
2021/11/11 10:57:51;;;;;;;492.40;90.17;;;11.20;99.90;;;;;;5073231;28;20463;-78
2021/11/11 11:00:24;;;;;;;262.20;51.97;;;11.10;99.90;;;;;;5075644;28;20425;-77
2021/11/11 11:02:58;;;;;;;244.70;51.33;;;11.10;99.90;;;;;;5073482;28;20473;-77
2021/11/11 11:05:29;;;;;;;170.23;41.63;;;11.20;99.90;;;;;;5073544;28;20958;-77
2021/11/11 11:08:07;;;;;;;293.50;54.73;;;11.20;99.90;;;;;;5075424;28;20433;-77
2021/11/11 11:10:38;;;;;;;207.23;51.50;;;11.20;99.90;;;;;;5073296;28;20457;-78
2021/11/11 11:13:11;;;;;;;233.80;56.40;;;11.20;99.90;;;;;;5073034;28;20434;-77
2021/11/11 11:15:43;;;;;;;315.70;75.70;;;11.30;99.90;;;;;;5073047;28;20499;-77
2021/11/11 11:18:14;;;;;;;305.70;57.57;;;11.30;99.90;;;;;;5073218;28;20646;-77
2021/11/11 11:20:43;;;;;;;349.60;72.90;;;11.30;99.90;;;;;;5073343;28;20468;-78
2021/11/11 11:23:22;;;;;;;325.30;64.83;;;11.30;99.90;;;;;;5073678;28;20507;-77
2021/11/11 11:26:07;;;;;;;449.80;65.97;;;11.30;99.90;;;;;;5076008;28;21014;-77
2021/11/11 11:28:47;;;;;;;315.10;72.00;;;11.30;99.90;;;;;;5074700;28;20449;-77
2021/11/11 11:31:25;;;;;;;408.90;76.33;;;11.30;99.90;;;;;;5077079;28;20583;-77
2021/11/11 11:33:53;;;;;;;303.90;70.93;;;11.30;99.90;;;;;;5076551;28;20535;-77
2021/11/11 11:36:35;;;;;;;419.10;76.30;;;11.30;99.90;;;;;;5078927;28;20536;-78
2021/11/11 11:39:06;;;;;;;498.17;73.07;;;11.30;99.90;;;;;;5079545;28;20951;-77
2021/11/11 11:41:39;;;;;;;435.73;87.30;;;11.30;99.90;;;;;;5077161;28;20530;-77
2021/11/11 11:44:26;;;;;;;401.57;73.27;;;11.30;99.90;;;;;;5076436;28;20449;-77
2021/11/11 11:47:05;;;;;;;381.97;62.63;;;11.20;99.90;;;;;;5076614;28;20523;-77
2021/11/11 11:49:35;;;;;;;454.67;87.17;;;11.20;99.90;;;;;;5076803;28;20436;-77
2021/11/11 11:52:07;;;;;;;388.77;63.97;;;11.20;99.90;;;;;;5078288;28;20483;-78
2021/11/11 11:55:00;;;;;;;339.43;75.40;;;11.20;99.90;;;;;;5076989;28;20430;-78
2021/11/11 11:57:40;;;;;;;204.53;51.60;;;11.10;99.90;;;;;;5077413;28;20461;-78
2021/11/11 12:00:20;;;;;;;300.47;67.40;;;11.20;99.90;;;;;;5077329;28;20429;-78
2021/11/11 12:03:18;;;;;;;420.07;58.10;;;11.20;99.90;;;;;;5076759;28;20997;-77
2021/11/11 12:06:18;;;;;;;473.53;78.80;;;11.20;99.90;;;;;;5076753;28;20460;-78
2021/11/11 12:09:07;;;;;;;378.77;66.17;;;11.20;99.90;;;;;;5079005;28;20499;-77
2021/11/11 12:14:25;;;;;;;365.80;72.97;;;11.30;99.90;;;;;;5055757;28;20445;-78
2021/11/11 12:29:01;;;;;;;433.07;101.50;;;11.40;99.90;;;;;;5078578;28;20486;-78
2021/11/11 12:38:30;;;;;;;367.50;93.10;;;11.50;99.90;;;;;;5080584;28;20417;-78
2021/11/11 12:40:20;;;;;;;422.13;70.77;;;11.50;99.90;;;;;;5080937;28;20467;-78
2021/11/11 12:42:54;;;;;;;144.80;58.67;;;11.60;99.90;;;;;;5080510;28;20484;-78
2021/11/11 12:45:25;;;;;;;99.00;41.10;;;11.60;99.90;;;;;;5081178;28;20549;-78
2021/11/11 12:47:58;;;;;;;144.37;51.47;;;11.60;99.90;;;;;;5082838;28;20490;-79
2021/11/11 12:50:35;;;;;;;230.00;76.23;;;11.60;99.90;;;;;;5082525;28;20445;-79
2021/11/11 12:53:32;;;;;;;49.33;44.63;;;11.60;99.90;;;;;;5082961;28;20819;-79
2021/11/11 12:56:26;;;;;;;63.53;38.27;;;11.70;99.90;;;;;;5082021;28;20437;-79
2021/11/11 12:59:10;;;;;;;321.00;84.37;;;11.70;99.90;;;;;;5080335;28;20490;-78
2021/11/11 13:01:51;;;;;;;88.07;59.50;;;11.70;99.90;;;;;;5082080;28;20469;-79
2021/11/11 13:04:23;;;;;;;289.93;92.33;;;11.70;99.90;;;;;;5082228;28;20878;-79
2021/11/11 13:06:54;;;;;;;291.83;88.20;;;11.70;99.90;;;;;;5082854;28;20461;-79
2021/11/11 13:09:25;;;;;;;412.20;78.33;;;11.70;99.90;;;;;;5081528;28;20909;-79
2021/11/11 13:12:12;;;;;;;111.80;52.57;;;11.70;99.90;;;;;;5080445;28;20476;-79
2021/11/11 13:14:54;;;;;;;480.40;103.93;;;11.70;99.90;;;;;;5083347;28;20421;-79
2021/11/11 13:17:25;;;;;;;419.67;93.57;;;11.60;99.90;;;;;;5082418;28;20433;-79
2021/11/11 13:20:01;;;;;;;249.67;64.73;;;11.60;99.90;;;;;;5079487;28;20448;-78
2021/11/11 13:22:44;;;;;;;334.43;72.73;;;11.60;99.90;;;;;;5081079;28;20473;-78